Time;durP1;ratioP1;P1;durP2;ratioP2;P2;SDS_P1;SDS_P2;PMS_P1;PMS_P2;Temp;Humidity;BMP_temperature;BMP_pressure;BME280_temperature;BME280_humidity;BME280_pressure;Samples;Min_cycle;Max_cycle;Signal;HPM_P1;HPM_P2
2024/02/13 00:44:19;;;;;;;2.72;2.00;;;17.60;63.30;;;;;;6305484;22;20301;-86
2024/02/13 00:46:45;;;;;;;2.92;2.00;;;17.60;63.10;;;;;;6232587;22;20144;-86
2024/02/13 00:49:16;;;;;;;3.53;2.00;;;17.60;63.10;;;;;;6254743;22;20223;-86
2024/02/13 00:51:48;;;;;;;4.20;1.98;;;17.60;63.00;;;;;;6228648;22;20148;-85
2024/02/13 00:54:16;;;;;;;3.20;2.33;;;17.70;63.00;;;;;;6229124;22;20148;-85
2024/02/13 00:56:45;;;;;;;2.45;2.08;;;17.60;62.90;;;;;;6255558;22;20129;-85
2024/02/13 00:59:26;;;;;;;3.17;2.10;;;17.60;63.90;;;;;;6229493;22;20195;-85
2024/02/13 01:02:05;;;;;;;3.53;2.20;;;17.60;63.00;;;;;;6184615;22;20151;-85
2024/02/13 01:04:33;;;;;;;2.50;2.00;;;17.60;63.30;;;;;;6226461;22;20149;-85
2024/02/13 01:07:06;;;;;;;2.85;2.10;;;17.60;63.40;;;;;;6250215;22;20153;-85
2024/02/13 01:09:41;;;;;;;3.25;1.98;;;17.60;62.90;;;;;;6174971;22;20153;-85
2024/02/13 01:12:08;;;;;;;3.33;1.88;;;17.60;63.10;;;;;;6225301;22;20506;-85
2024/02/13 01:14:55;;;;;;;2.90;2.10;;;17.60;63.00;;;;;;6225056;22;20235;-86
2024/02/13 01:17:21;;;;;;;2.40;2.00;;;17.50;63.00;;;;;;6189462;23;20150;-85
2024/02/13 01:19:57;;;;;;;2.78;1.90;;;17.60;62.90;;;;;;6190189;23;20165;-85
2024/02/13 01:22:29;;;;;;;2.80;2.00;;;17.60;63.80;;;;;;6136810;23;20574;-85
2024/02/13 01:24:55;;;;;;;3.22;2.05;;;17.60;63.00;;;;;;6184791;23;20154;-84
2024/02/13 01:27:21;;;;;;;2.15;1.80;;;17.60;63.00;;;;;;6072275;23;20153;-85
2024/02/13 01:29:50;;;;;;;3.45;2.20;;;17.60;63.10;;;;;;6072527;23;20231;-84
2024/02/13 01:32:25;;;;;;;2.05;1.85;;;17.60;63.10;;;;;;6072538;23;20232;-84
2024/02/13 01:34:51;;;;;;;3.30;2.30;;;17.50;63.10;;;;;;5991250;23;20192;-85
2024/02/13 01:37:39;;;;;;;2.72;2.10;;;17.50;63.20;;;;;;5991373;23;20154;-85
2024/02/13 01:40:06;;;;;;;3.42;2.33;;;17.50;63.20;;;;;;6038619;23;20147;-84
2024/02/13 01:42:37;;;;;;;2.50;1.90;;;17.50;63.30;;;;;;6061637;23;20244;-85
2024/02/13 01:45:06;;;;;;;2.70;2.00;;;17.50;63.20;;;;;;6094381;23;20225;-84
2024/02/13 01:47:35;;;;;;;3.42;2.25;;;17.50;63.10;;;;;;6072098;23;20578;-85
2024/02/13 01:50:06;;;;;;;3.28;2.15;;;17.60;63.20;;;;;;6094282;23;20153;-85
2024/02/13 01:52:33;;;;;;;2.72;2.20;;;17.50;63.20;;;;;;6102123;23;20222;-85
2024/02/13 01:55:00;;;;;;;3.03;2.20;;;17.50;63.40;;;;;;6042852;23;20193;-85
2024/02/13 01:57:29;;;;;;;3.28;2.30;;;17.50;63.10;;;;;;6054098;23;20240;-85
2024/02/13 01:59:55;;;;;;;2.80;2.08;;;17.50;63.40;;;;;;6043069;23;20157;-85
2024/02/13 02:02:32;;;;;;;2.30;1.80;;;17.50;63.30;;;;;;6067975;23;20158;-85
2024/02/13 02:04:59;;;;;;;2.53;2.00;;;17.50;63.20;;;;;;6059928;23;20171;-85
2024/02/13 02:07:33;;;;;;;3.45;2.00;;;17.50;63.20;;;;;;6154239;23;20145;-85
2024/02/13 02:09:59;;;;;;;3.72;2.65;;;17.50;63.20;;;;;;6101532;23;20152;-85
2024/02/13 02:12:25;;;;;;;3.03;2.15;;;17.50;63.30;;;;;;6125187;23;20151;-85
2024/02/13 02:14:53;;;;;;;2.83;2.20;;;17.50;63.20;;;;;;6125404;23;20202;-85
2024/02/13 02:17:22;;;;;;;2.63;2.13;;;17.50;63.20;;;;;;6074662;23;20163;-85
2024/02/13 02:19:52;;;;;;;3.35;2.10;;;17.40;63.20;;;;;;6076159;23;20157;-85
2024/02/13 02:22:19;;;;;;;2.58;1.90;;;17.40;63.30;;;;;;6009549;23;20154;-86
2024/02/13 02:24:48;;;;;;;4.72;2.13;;;17.40;63.20;;;;;;5986728;23;20249;-85
2024/02/13 02:27:19;;;;;;;2.95;2.05;;;17.30;63.20;;;;;;5998702;23;20170;-85
2024/02/13 02:29:50;;;;;;;3.13;2.30;;;17.40;63.40;;;;;;5999872;23;20175;-86
2024/02/13 02:32:20;;;;;;;2.70;2.00;;;17.40;63.40;;;;;;6120243;23;20205;-86
2024/02/13 02:35:11;;;;;;;2.78;2.10;;;17.40;63.40;;;;;;6109053;23;20149;-85
2024/02/13 02:38:15;;;;;;;2.67;2.17;;;17.40;63.20;;;;;;6071607;23;20153;-86
2024/02/13 02:40:44;;;;;;;2.67;2.03;;;17.40;63.50;;;;;;6095768;23;20170;-85
2024/02/13 02:43:09;;;;;;;2.50;1.95;;;17.30;63.40;;;;;;6108523;23;20216;-86
2024/02/13 02:45:35;;;;;;;4.40;2.15;;;17.30;63.40;;;;;;6043199;23;20502;-85
2024/02/13 02:48:01;;;;;;;2.72;1.95;;;17.30;63.60;;;;;;6066831;23;20180;-85
2024/02/13 02:50:27;;;;;;;2.63;2.10;;;17.30;63.30;;;;;;6043131;23;20485;-85
2024/02/13 02:52:53;;;;;;;2.53;2.00;;;17.40;63.40;;;;;;6085234;23;20149;-85
2024/02/13 02:55:18;;;;;;;3.00;2.10;;;17.30;63.40;;;;;;6100049;23;20152;-85
2024/02/13 02:57:45;;;;;;;3.00;2.15;;;17.30;63.40;;;;;;6052245;23;20179;-85
2024/02/13 03:00:14;;;;;;;2.72;2.38;;;17.30;63.60;;;;;;6113086;23;20158;-85
2024/02/13 03:02:40;;;;;;;3.22;1.90;;;17.30;63.40;;;;;;6110834;23;20162;-85
2024/02/13 03:05:12;;;;;;;2.58;2.17;;;17.30;63.60;;;;;;6110471;23;20150;-85
2024/02/13 03:07:38;;;;;;;3.88;2.30;;;17.30;63.40;;;;;;6111232;23;20154;-85
2024/02/13 03:10:20;;;;;;;3.17;2.10;;;17.30;63.60;;;;;;6109977;23;20151;-85
2024/02/13 03:12:48;;;;;;;2.35;2.00;;;17.30;63.30;;;;;;6161911;23;20131;-86
2024/02/13 03:15:15;;;;;;;3.33;2.15;;;17.30;63.60;;;;;;6135005;23;20142;-85
2024/02/13 03:17:42;;;;;;;3.00;2.17;;;17.30;63.70;;;;;;6134667;23;20201;-85
2024/02/13 03:20:10;;;;;;;2.55;2.00;;;17.30;63.70;;;;;;6172870;22;20153;-85
2024/02/13 03:22:37;;;;;;;2.88;2.15;;;17.20;63.50;;;;;;6200431;22;20190;-85
2024/02/13 03:25:04;;;;;;;3.70;1.95;;;17.20;63.40;;;;;;6225165;22;20147;-85
2024/02/13 03:27:37;;;;;;;3.67;2.30;;;17.30;63.50;;;;;;6200115;22;20555;-85
2024/02/13 03:30:04;;;;;;;2.58;2.00;;;17.20;63.60;;;;;;6200222;22;20149;-85
2024/02/13 03:32:32;;;;;;;2.97;2.25;;;17.20;63.70;;;;;;6250504;22;20184;-85
2024/02/13 03:34:59;;;;;;;3.20;1.85;;;17.20;63.60;;;;;;6219260;23;20203;-85
2024/02/13 03:37:30;;;;;;;2.60;2.20;;;17.20;63.60;;;;;;6193589;23;20150;-85
2024/02/13 03:39:57;;;;;;;2.50;1.98;;;17.20;63.70;;;;;;6218743;23;20170;-85
2024/02/13 03:42:22;;;;;;;2.40;1.90;;;17.20;63.40;;;;;;6194911;22;20141;-85
2024/02/13 06:29:44;;;;;;;3.08;2.10;;;17.00;63.80;;;;;;6278143;22;20647;-86
2024/02/13 06:32:16;;;;;;;2.30;1.95;;;17.00;63.90;;;;;;6226221;22;20183;-85
2024/02/13 06:34:42;;;;;;;2.40;2.10;;;17.00;63.80;;;;;;6226653;22;20245;-85
2024/02/13 06:37:11;;;;;;;2.72;2.00;;;17.00;63.90;;;;;;6200798;22;20245;-85
2024/02/13 07:28:56;;;;;;;3.28;1.65;;;17.20;62.20;;;;;;6307931;22;20206;-85
2024/02/13 07:31:23;;;;;;;2.63;2.10;;;17.30;61.90;;;;;;6281523;22;20128;-86
2024/02/13 07:33:52;;;;;;;2.55;1.85;;;17.30;62.20;;;;;;6255204;22;20153;-85
2024/02/13 07:36:18;;;;;;;3.03;1.95;;;17.30;62.30;;;;;;6203986;22;20494;-86
2024/02/13 07:38:50;;;;;;;3.00;2.05;;;17.20;62.50;;;;;;6255279;22;20163;-86
2024/02/13 07:41:16;;;;;;;2.60;1.90;;;17.30;61.70;;;;;;6255879;22;20159;-85
2024/02/13 07:43:45;;;;;;;2.70;2.00;;;17.20;62.80;;;;;;6255376;22;20583;-86
2024/02/13 07:46:11;;;;;;;1.98;1.75;;;17.40;60.50;;;;;;6207432;22;20482;-86
2024/02/13 07:48:39;;;;;;;2.40;1.80;;;17.40;60.70;;;;;;6256128;22;20151;-86
2024/02/13 07:51:28;;;;;;;2.70;1.85;;;17.40;60.60;;;;;;6232437;22;20152;-86
2024/02/13 07:53:53;;;;;;;2.22;1.80;;;17.50;60.80;;;;;;6212651;23;20150;-85
2024/02/13 07:56:24;;;;;;;2.22;1.70;;;17.50;60.70;;;;;;6193652;23;20212;-85
2024/02/13 07:58:50;;;;;;;2.15;1.90;;;17.50;60.30;;;;;;6193904;23;20264;-86
2024/02/13 08:01:21;;;;;;;2.92;1.60;;;17.50;60.90;;;;;;6192949;23;20146;-86
2024/02/13 08:03:54;;;;;;;2.25;1.67;;;17.50;60.90;;;;;;6192369;23;20153;-87
2024/02/13 08:06:22;;;;;;;2.15;1.77;;;17.50;60.90;;;;;;6190828;23;20488;-85
2024/02/13 08:08:51;;;;;;;1.90;1.50;;;17.40;61.00;;;;;;6215493;23;20165;-86
2024/02/13 08:11:21;;;;;;;2.10;1.75;;;17.40;61.20;;;;;;6126557;23;20159;-85
2024/02/13 08:13:49;;;;;;;2.20;1.92;;;17.50;61.30;;;;;;6175171;23;20239;-85
2024/02/13 08:16:18;;;;;;;2.65;1.85;;;17.50;60.70;;;;;;6151259;23;20188;-86
2024/02/13 08:18:48;;;;;;;2.50;1.70;;;17.50;61.20;;;;;;6150324;23;20274;-86
2024/02/13 08:21:13;;;;;;;2.22;1.75;;;17.50;60.80;;;;;;6125234;23;20168;-86
2024/02/13 08:23:42;;;;;;;3.10;1.95;;;17.60;60.90;;;;;;6166285;23;20150;-85
2024/02/13 08:26:08;;;;;;;2.30;1.88;;;17.50;61.00;;;;;;6219056;23;20135;-86
2024/02/13 08:28:37;;;;;;;2.28;1.85;;;17.50;61.10;;;;;;6166382;23;20189;-86
2024/02/13 08:31:04;;;;;;;1.63;1.48;;;17.40;61.60;;;;;;6167240;23;20157;-86
2024/02/13 08:33:30;;;;;;;1.60;1.48;;;17.40;60.30;;;;;;6167498;23;20138;-86
2024/02/13 08:35:57;;;;;;;2.40;1.90;;;17.50;60.80;;;;;;6193203;23;20201;-87
2024/02/13 08:38:23;;;;;;;2.45;1.60;;;17.50;61.00;;;;;;6192930;23;20178;-87
2024/02/13 08:40:50;;;;;;;2.22;2.00;;;17.60;60.60;;;;;;6195250;23;20494;-87
2024/02/13 08:43:16;;;;;;;1.80;1.52;;;17.50;61.20;;;;;;6219057;23;20146;-87
2024/02/13 08:45:42;;;;;;;1.67;1.58;;;17.50;61.00;;;;;;6167433;23;20173;-87
2024/02/13 08:48:07;;;;;;;2.38;1.90;;;17.50;61.00;;;;;;6218788;22;20171;-87
2024/02/13 08:50:33;;;;;;;2.05;1.60;;;17.60;60.50;;;;;;6233030;22;20513;-88
2024/02/13 08:52:59;;;;;;;2.22;1.70;;;17.60;60.50;;;;;;6233440;22;20166;-89
2024/02/13 08:55:29;;;;;;;2.22;1.67;;;17.70;60.30;;;;;;6233254;22;20173;-87
2024/02/13 08:57:56;;;;;;;1.75;1.50;;;17.60;60.70;;;;;;6205753;22;20564;-87
2024/02/13 09:00:28;;;;;;;2.10;1.73;;;17.60;60.70;;;;;;6308885;22;20231;-85
2024/02/13 09:02:56;;;;;;;3.50;1.92;;;17.70;60.80;;;;;;6259247;22;20152;-87
2024/02/13 09:05:22;;;;;;;2.05;1.40;;;17.60;61.10;;;;;;6195315;23;20160;-85
2024/02/13 09:07:48;;;;;;;2.38;1.80;;;17.70;60.50;;;;;;6176738;23;20190;-86
2024/02/13 09:10:13;;;;;;;2.47;1.63;;;17.70;60.70;;;;;;6202606;23;20194;-84
2024/02/13 09:12:40;;;;;;;3.75;2.00;;;17.70;60.40;;;;;;6178557;23;20206;-89
2024/02/13 09:15:11;;;;;;;4.13;1.60;;;17.70;60.70;;;;;;6165939;23;20594;-88
2024/02/13 09:17:43;;;;;;;2.45;1.58;;;17.60;60.40;;;;;;6137483;23;20154;-87
2024/02/13 09:20:15;;;;;;;3.10;1.60;;;17.70;60.00;;;;;;6097761;23;20249;-86
2024/02/13 09:22:45;;;;;;;3.30;1.70;;;17.70;60.40;;;;;;6076438;23;20212;-87
2024/02/13 09:25:20;;;;;;;4.93;1.60;;;17.70;61.30;;;;;;5994247;23;20213;-88
2024/02/13 09:27:50;;;;;;;2.10;1.60;;;17.70;60.80;;;;;;5975349;23;20190;-87
2024/02/13 09:30:18;;;;;;;2.20;1.75;;;17.60;61.30;;;;;;5933612;24;20164;-87
2024/02/13 09:32:47;;;;;;;2.33;1.77;;;17.70;60.70;;;;;;5957176;24;20218;-87
2024/02/13 09:35:16;;;;;;;3.50;1.70;;;17.70;59.70;;;;;;5934508;24;20584;-87
2024/02/13 09:37:45;;;;;;;2.30;1.77;;;17.80;60.20;;;;;;5957379;24;20457;-87
2024/02/13 09:40:14;;;;;;;2.45;1.52;;;17.80;60.30;;;;;;5980781;24;20164;-87
2024/02/13 09:42:41;;;;;;;3.83;1.70;;;17.80;59.80;;;;;;5992826;23;20148;-86
2024/02/13 09:45:11;;;;;;;2.55;1.70;;;17.80;59.90;;;;;;6009990;23;20607;-88
2024/02/13 09:47:39;;;;;;;2.25;1.35;;;17.90;59.80;;;;;;5990602;23;20254;-87
2024/02/13 09:50:12;;;;;;;2.80;1.63;;;17.90;59.80;;;;;;5992907;23;20159;-86
2024/02/13 09:52:55;;;;;;;1.83;1.52;;;17.90;59.90;;;;;;6019879;23;20176;-86
2024/02/13 09:55:24;;;;;;;2.03;1.48;;;17.90;60.10;;;;;;6024698;23;20232;-86
2024/02/13 09:57:51;;;;;;;3.70;1.60;;;17.80;60.50;;;;;;6087317;23;20156;-86
2024/02/13 10:00:18;;;;;;;1.90;1.50;;;17.90;60.50;;;;;;6045582;23;20324;-86
2024/02/13 10:02:50;;;;;;;2.33;1.67;;;17.90;60.00;;;;;;6046122;23;20156;-86
2024/02/13 10:05:23;;;;;;;2.25;1.50;;;17.90;59.90;;;;;;6069304;23;20145;-86
2024/02/13 10:07:52;;;;;;;2.03;1.60;;;17.90;59.80;;;;;;5985246;23;20161;-88
2024/02/13 10:10:31;;;;;;;2.83;1.40;;;17.90;60.40;;;;;;6019624;23;20572;-86
2024/02/13 10:13:03;;;;;;;2.28;1.67;;;17.90;60.30;;;;;;6038748;23;20203;-84
2024/02/13 10:15:39;;;;;;;2.00;1.52;;;18.00;59.90;;;;;;6040929;23;20241;-88
2024/02/13 10:18:19;;;;;;;1.98;1.60;;;18.00;59.60;;;;;;6055452;23;20636;-85
2024/02/13 10:20:52;;;;;;;2.45;1.60;;;18.00;60.00;;;;;;6033739;23;20156;-85
2024/02/13 10:23:26;;;;;;;1.67;1.40;;;17.90;60.30;;;;;;6055225;23;20156;-88
2024/02/13 10:25:53;;;;;;;2.05;1.55;;;17.90;59.70;;;;;;6029163;23;20506;-86
2024/02/13 10:28:25;;;;;;;1.88;1.50;;;17.90;60.60;;;;;;6028003;23;20203;-87
2024/02/13 10:31:04;;;;;;;2.08;1.67;;;17.90;60.30;;;;;;6136400;23;20150;-87
2024/02/13 10:33:40;;;;;;;5.25;1.60;;;18.00;60.00;;;;;;6144480;23;20621;-87
2024/02/13 10:36:11;;;;;;;2.33;1.52;;;18.00;59.90;;;;;;6102887;23;20553;-87
2024/02/13 10:38:41;;;;;;;1.88;1.48;;;18.00;59.60;;;;;;6126517;23;20171;-87
2024/02/13 10:41:10;;;;;;;3.17;1.65;;;17.90;59.80;;;;;;6074236;23;20265;-87
2024/02/13 10:43:47;;;;;;;2.10;1.30;;;18.00;60.30;;;;;;6087043;23;20216;-86
2024/02/13 10:46:19;;;;;;;1.77;1.42;;;17.90;60.00;;;;;;6091999;23;20176;-85
2024/02/13 10:48:52;;;;;;;1.80;1.40;;;18.00;59.80;;;;;;6089821;23;20165;-87
2024/02/13 10:51:33;;;;;;;1.70;1.35;;;18.00;59.80;;;;;;6066140;23;20221;-87
2024/02/13 10:54:11;;;;;;;1.73;1.40;;;18.00;60.20;;;;;;5999744;23;20156;-85
2024/02/13 10:56:44;;;;;;;2.00;1.55;;;17.90;60.00;;;;;;6044818;23;20153;-86
2024/02/13 10:59:28;;;;;;;2.47;1.33;;;17.90;60.20;;;;;;6046000;23;20185;-87
2024/02/13 11:01:58;;;;;;;2.08;1.52;;;17.90;60.10;;;;;;5996117;23;20213;-88
2024/02/13 11:04:27;;;;;;;1.52;1.25;;;17.80;60.20;;;;;;6096362;23;20608;-86
2024/02/13 11:06:54;;;;;;;4.57;1.20;;;17.90;60.30;;;;;;6072984;23;20180;-87
2024/02/13 11:09:23;;;;;;;5.13;1.50;;;17.90;59.90;;;;;;6068694;23;20180;-87
2024/02/13 11:11:52;;;;;;;2.10;1.50;;;17.90;60.30;;;;;;6058529;23;20585;-86
2024/02/13 11:14:27;;;;;;;2.08;1.48;;;17.90;60.50;;;;;;6077349;23;20491;-87
2024/02/13 11:17:03;;;;;;;1.45;1.30;;;17.90;60.20;;;;;;6067239;23;20224;-86
2024/02/13 11:19:45;;;;;;;1.38;1.08;;;17.90;60.10;;;;;;5986840;23;20205;-88
2024/02/13 11:22:31;;;;;;;3.88;1.50;;;17.90;60.00;;;;;;5983576;23;20199;-86
2024/02/13 11:25:10;;;;;;;2.10;1.25;;;17.90;60.10;;;;;;6006661;23;20234;-86
2024/02/13 11:27:40;;;;;;;4.65;1.40;;;17.90;60.20;;;;;;5975496;23;20576;-86
2024/02/13 11:30:07;;;;;;;2.70;1.58;;;18.00;59.80;;;;;;6035537;23;20163;-88
2024/02/13 11:32:37;;;;;;;4.40;1.23;;;18.00;60.00;;;;;;6004093;23;20159;-86
2024/02/13 11:35:11;;;;;;;3.42;1.30;;;17.90;60.00;;;;;;5997855;23;20209;-86
2024/02/13 11:37:41;;;;;;;2.03;1.38;;;17.90;59.90;;;;;;6015391;23;20182;-87
2024/02/13 11:40:12;;;;;;;4.65;1.33;;;17.90;59.70;;;;;;6019768;23;20200;-88
2024/02/13 11:42:42;;;;;;;2.85;1.38;;;17.90;60.50;;;;;;6013825;23;20161;-85
2024/02/13 11:45:22;;;;;;;1.40;1.20;;;17.90;60.40;;;;;;6008599;23;20658;-86
2024/02/13 11:48:25;;;;;;;3.22;1.35;;;18.00;60.40;;;;;;6033717;23;20160;-87
2024/02/13 11:54:10;;;;;;;1.92;1.50;;;17.90;59.90;;;;;;6012648;23;20158;-85
2024/02/13 11:56:55;;;;;;;3.63;1.60;;;17.90;59.90;;;;;;5987930;23;20237;-85
2024/02/13 11:59:22;;;;;;;3.33;1.30;;;17.90;60.40;;;;;;6023956;23;20188;-85
2024/02/13 12:01:48;;;;;;;3.67;1.52;;;17.80;60.90;;;;;;6039264;23;20154;-84
2024/02/13 12:04:23;;;;;;;2.20;1.50;;;17.80;60.40;;;;;;6043979;23;20161;-84
2024/02/13 12:06:58;;;;;;;1.85;1.25;;;17.90;60.10;;;;;;6041476;23;20237;-85
2024/02/13 12:09:30;;;;;;;1.25;1.08;;;18.00;59.50;;;;;;6036929;23;20240;-85
2024/02/13 12:12:19;;;;;;;2.33;1.33;;;17.90;60.50;;;;;;6070900;23;20557;-85
2024/02/13 12:15:22;;;;;;;1.65;1.38;;;17.80;60.30;;;;;;6011082;23;20151;-85
2024/02/13 12:18:18;;;;;;;1.80;1.27;;;17.80;60.30;;;;;;6047173;23;20681;-86
2024/02/13 12:23:56;;;;;;;2.17;1.23;;;17.80;60.70;;;;;;6062913;23;20196;-87
2024/02/13 12:26:52;;;;;;;;;;;;;;;;;;;;;
2024/02/13 12:29:19;;;;;;;1.48;1.20;;;17.80;60.10;;;;;;6012460;23;20293;-85
2024/02/13 12:31:48;;;;;;;2.78;1.27;;;17.80;60.70;;;;;;6013969;23;20189;-84
2024/02/13 12:34:33;;;;;;;1.48;1.23;;;17.80;60.70;;;;;;5991910;23;20214;-85
2024/02/13 12:37:18;;;;;;;2.30;1.30;;;17.80;59.90;;;;;;5953137;24;20340;-86
2024/02/13 12:39:47;;;;;;;2.47;1.50;;;17.80;61.00;;;;;;5955581;24;20233;-85
2024/02/13 12:42:33;;;;;;;2.28;1.60;;;17.80;60.80;;;;;;5956755;24;20237;-87
2024/02/13 12:45:02;;;;;;;2.10;1.23;;;17.80;60.60;;;;;;5954923;24;20651;-87
2024/02/13 12:47:38;;;;;;;2.28;1.33;;;17.80;60.50;;;;;;5957217;24;20152;-85
2024/02/13 12:50:17;;;;;;;1.95;1.38;;;17.80;60.40;;;;;;5955484;24;20183;-86
2024/02/13 12:52:56;;;;;;;1.63;1.27;;;17.80;60.40;;;;;;5954021;24;20550;-87
2024/02/13 12:55:56;;;;;;;1.50;1.13;;;17.80;60.70;;;;;;5955942;24;20162;-87
2024/02/13 12:58:22;;;;;;;2.08;1.17;;;17.80;60.50;;;;;;5955664;24;20176;-86
2024/02/13 13:01:23;;;;;;;2.08;1.10;;;17.80;60.30;;;;;;5995254;23;20161;-84
2024/02/13 13:04:12;;;;;;;1.83;1.50;;;17.80;60.20;;;;;;6051392;23;20150;-92
2024/02/13 13:10:14;;;;;;;1.60;1.20;;;17.80;60.90;;;;;;5986053;24;20171;-88
2024/02/13 13:13:28;;;;;;;2.88;1.00;;;17.70;60.90;;;;;;5908169;24;20160;-86
2024/02/13 13:22:47;;;;;;;1.17;1.02;;;17.70;61.60;;;;;;5788456;24;20171;-87
2024/02/13 13:25:58;;;;;;;2.03;1.23;;;17.70;60.90;;;;;;5758136;24;20160;-90
2024/02/13 13:28:36;;;;;;;2.53;1.15;;;17.70;60.70;;;;;;5690605;24;20626;-87
2024/02/13 13:34:43;;;;;;;1.88;1.17;;;17.70;61.20;;;;;;5769804;24;20244;-88
2024/02/13 13:37:36;;;;;;;;;;;;;;;;;;;;;
2024/02/13 13:46:52;;;;;;;1.52;1.10;;;17.80;60.50;;;;;;6014781;22;20221;-87
2024/02/13 13:50:00;;;;;;;;;;;;;;;;;;;;;
2024/02/13 13:53:13;;;;;;;1.70;1.35;;;17.70;60.70;;;;;;6171414;23;20155;-88
2024/02/13 13:59:20;;;;;;;2.00;1.30;;;17.80;60.30;;;;;;6051502;23;20525;-90
2024/02/13 14:01:47;;;;;;;1.23;0.95;;;17.90;59.80;;;;;;6001572;23;20573;-88
2024/02/13 14:04:22;;;;;;;1.75;1.13;;;17.90;60.00;;;;;;5997947;23;20153;-88
2024/02/13 14:07:07;;;;;;;1.80;1.08;;;17.80;60.20;;;;;;5998341;23;20617;-87
2024/02/13 14:10:01;;;;;;;1.88;1.33;;;17.90;59.70;;;;;;6042099;23;20497;-88
2024/02/13 14:12:53;;;;;;;4.88;1.08;;;17.90;59.90;;;;;;6019026;23;20161;-89
2024/02/13 14:16:30;;;;;;;1.45;1.10;;;18.00;59.90;;;;;;5909449;24;20160;-88
2024/02/13 14:18:34;;;;;;;1.42;1.05;;;18.00;60.20;;;;;;5947358;24;20223;-89
2024/02/13 14:21:23;;;;;;;1.73;1.00;;;18.00;59.60;;;;;;5912307;24;20156;-89
2024/02/13 14:24:12;;;;;;;4.35;1.02;;;18.00;59.40;;;;;;5951344;24;20230;-88
2024/02/13 14:27:05;;;;;;;1.30;1.10;;;18.00;59.60;;;;;;5870199;24;20243;-88
2024/02/13 14:29:52;;;;;;;1.98;0.98;;;18.00;59.50;;;;;;5900574;24;20171;-88
2024/02/13 14:32:33;;;;;;;1.00;0.90;;;18.00;59.90;;;;;;5994938;23;20543;-89
2024/02/13 14:35:16;;;;;;;1.27;1.10;;;18.00;59.50;;;;;;5984761;23;20158;-88
2024/02/13 14:38:15;;;;;;;1.10;1.00;;;18.10;59.60;;;;;;5957702;24;20278;-88
2024/02/13 14:41:08;;;;;;;0.90;0.80;;;18.00;60.00;;;;;;5923298;24;20175;-88
2024/02/13 14:43:41;;;;;;;3.50;1.17;;;18.10;59.90;;;;;;5821791;24;20169;-89
2024/02/13 14:46:18;;;;;;;1.90;1.20;;;18.00;60.00;;;;;;5877363;24;20165;-87
2024/02/13 14:48:53;;;;;;;1.10;0.95;;;18.00;60.10;;;;;;5850145;24;20194;-87
2024/02/13 14:51:20;;;;;;;1.40;1.08;;;18.00;60.10;;;;;;5798483;24;20228;-88
2024/02/13 14:53:51;;;;;;;1.33;0.90;;;18.00;59.50;;;;;;5750454;24;20168;-87
2024/02/13 14:56:29;;;;;;;1.50;1.10;;;17.90;60.20;;;;;;5771661;24;20195;-88
2024/02/13 14:59:20;;;;;;;2.08;0.98;;;18.00;59.90;;;;;;5793047;24;20274;-86
2024/02/13 15:02:20;;;;;;;2.60;1.17;;;18.00;59.80;;;;;;5784504;24;20616;-88
2024/02/13 15:04:49;;;;;;;1.98;1.13;;;18.10;59.40;;;;;;5814552;24;20174;-88
2024/02/13 15:07:16;;;;;;;1.42;0.90;;;18.00;59.40;;;;;;5856630;24;20231;-87
2024/02/13 15:09:51;;;;;;;1.83;1.00;;;18.00;60.10;;;;;;5903241;24;20626;-87
2024/02/13 15:12:24;;;;;;;1.30;1.00;;;18.00;60.10;;;;;;5903225;24;20216;-86
2024/02/13 15:15:06;;;;;;;3.25;1.00;;;18.00;60.60;;;;;;5922158;24;20157;-86
2024/02/13 15:17:36;;;;;;;1.23;1.02;;;17.90;60.50;;;;;;5966312;24;20207;-87
2024/02/13 15:20:04;;;;;;;1.55;1.10;;;17.90;61.40;;;;;;5965986;23;20193;-84
2024/02/13 15:22:38;;;;;;;2.60;1.13;;;17.90;60.30;;;;;;6052000;23;20149;-87
2024/02/13 15:25:08;;;;;;;1.02;0.93;;;17.90;61.00;;;;;;6094030;23;20144;-86
2024/02/13 15:27:35;;;;;;;2.60;1.13;;;17.90;60.70;;;;;;6104868;23;20583;-87
2024/02/13 15:30:17;;;;;;;;;;;;;;;;;;;;;
2024/02/13 15:32:46;;;;;;;2.28;1.05;;;18.00;59.80;;;;;;6142243;23;20174;-85
2024/02/13 15:35:30;;;;;;;4.32;1.35;;;18.00;60.20;;;;;;6158938;23;20242;-84
2024/02/13 16:28:03;;;;;;;;;;;;;;;;;;;;;
2024/02/13 16:30:55;;;;;;;;;;;;;;;;;;;;;
2024/02/13 16:33:46;;;;;;;8.18;1.25;;;18.40;61.50;;;;;;6151508;22;20172;-87
2024/02/13 16:36:21;;;;;;;5.25;1.38;;;18.40;61.00;;;;;;6263101;22;20235;-86
2024/02/13 16:39:17;;;;;;;5.03;1.52;;;18.40;61.70;;;;;;6184841;22;20179;-85
2024/02/13 16:41:52;;;;;;;2.30;0.90;;;18.40;61.70;;;;;;6172385;22;20603;-85
2024/02/13 16:48:34;;;;;;;3.33;1.10;;;18.50;61.80;;;;;;6165499;23;20155;-86
2024/02/13 18:16:22;;;;;;;3.88;1.33;;;18.80;66.20;;;;;;6343084;22;20191;-87
2024/02/13 18:19:49;;;;;;;;;;;;;;;;;;;;;
2024/02/13 18:22:18;;;;;;;4.55;1.75;;;18.80;65.30;;;;;;6099031;23;20180;-86
2024/02/13 18:42:23;;;;;;;8.50;1.50;;;18.80;64.30;;;;;;6156785;23;20220;-86
2024/02/13 18:48:03;;;;;;;6.32;1.50;;;18.80;62.40;;;;;;6099275;23;20152;-87
2024/02/13 18:50:49;;;;;;;7.20;1.80;;;18.80;64.80;;;;;;6077602;23;20488;-87
2024/02/13 18:53:47;;;;;;;9.35;1.83;;;18.80;62.90;;;;;;6100608;23;20160;-87
2024/02/13 18:56:31;;;;;;;9.32;1.95;;;18.80;62.60;;;;;;6080221;23;20159;-86
2024/02/13 18:59:14;;;;;;;6.90;1.63;;;18.90;64.00;;;;;;6096478;23;20184;-85
2024/02/13 19:01:45;;;;;;;14.77;2.25;;;18.90;63.20;;;;;;6084795;23;20174;-84
2024/02/13 19:04:11;;;;;;;8.50;2.00;;;18.90;64.20;;;;;;6107622;23;20183;-86
2024/02/13 19:06:42;;;;;;;9.32;1.88;;;18.80;65.40;;;;;;6105627;23;20151;-84
2024/02/13 19:13:23;;;;;;;9.70;1.67;;;18.90;64.10;;;;;;6129919;23;20171;-88
2024/02/13 19:16:17;;;;;;;;;;;;;;;;;;;;;
2024/02/13 19:19:03;;;;;;;;;;;;;;;;;;;;;
2024/02/13 20:38:43;;;;;;;2.60;1.10;;;18.60;64.10;;;;;;6308213;22;20289;-87
2024/02/13 20:41:12;;;;;;;3.22;1.10;;;18.60;66.10;;;;;;6196167;23;20157;-87
2024/02/13 20:43:42;;;;;;;4.50;1.63;;;18.60;64.40;;;;;;6171382;23;20519;-87
2024/02/13 20:46:25;;;;;;;3.22;1.50;;;18.60;64.00;;;;;;6173751;23;20249;-88
2024/02/13 20:49:01;;;;;;;4.07;1.60;;;18.60;65.40;;;;;;6129120;23;20236;-87
2024/02/13 20:51:36;;;;;;;2.20;1.30;;;18.50;65.70;;;;;;6197248;23;20146;-87
2024/02/13 20:54:09;;;;;;;4.72;1.52;;;18.50;66.40;;;;;;6143931;23;20169;-88
2024/02/13 20:56:35;;;;;;;3.88;1.67;;;18.40;65.60;;;;;;6101935;23;20156;-87
2024/02/13 20:59:01;;;;;;;2.47;1.27;;;18.50;65.50;;;;;;6103313;23;20257;-87
2024/02/13 21:01:38;;;;;;;4.95;1.60;;;18.40;67.70;;;;;;6082369;23;20151;-87
2024/02/13 21:04:11;;;;;;;6.72;1.23;;;18.30;67.40;;;;;;6082890;23;20158;-87
2024/02/13 21:06:37;;;;;;;3.08;1.40;;;18.30;67.20;;;;;;6132716;23;20148;-88
2024/02/13 21:09:05;;;;;;;2.40;1.10;;;18.30;67.60;;;;;;6083451;23;20156;-88
2024/02/13 21:11:36;;;;;;;3.75;1.50;;;18.30;68.00;;;;;;6083577;23;20155;-88
2024/02/13 21:14:12;;;;;;;4.38;1.48;;;18.30;67.80;;;;;;6084592;23;20152;-87
2024/02/13 21:16:43;;;;;;;3.45;1.38;;;18.20;68.90;;;;;;6086816;23;20155;-87
2024/02/13 21:19:21;;;;;;;5.47;1.20;;;18.20;68.80;;;;;;6126598;23;20178;-87
2024/02/13 21:24:28;;;;;;;5.20;1.38;;;18.20;68.60;;;;;;6105315;23;20241;-88
2024/02/13 21:27:03;;;;;;;1.65;1.10;;;18.30;68.80;;;;;;6098367;23;20154;-87
2024/02/13 22:15:10;;;;;;;3.10;1.33;;;18.10;67.40;;;;;;6324336;22;20203;-87
2024/02/13 22:17:48;;;;;;;3.78;1.20;;;18.20;68.00;;;;;;6284802;22;20155;-88
2024/02/13 22:20:17;;;;;;;2.55;1.10;;;18.10;68.30;;;;;;6257955;22;20160;-88
2024/02/13 22:22:47;;;;;;;1.70;1.20;;;18.00;68.50;;;;;;6258144;22;20598;-88
2024/02/13 22:25:18;;;;;;;3.15;1.48;;;18.00;68.90;;;;;;6233104;22;20193;-88
2024/02/13 22:27:51;;;;;;;3.72;1.30;;;18.00;68.10;;;;;;6228230;22;20451;-86
2024/02/13 22:30:24;;;;;;;3.33;1.60;;;18.10;68.50;;;;;;6161806;23;20249;-88
2024/02/13 22:33:03;;;;;;;3.22;1.40;;;18.00;68.50;;;;;;6090519;23;20158;-88
2024/02/13 22:35:32;;;;;;;2.25;1.48;;;18.00;68.60;;;;;;6113108;23;20154;-88
2024/02/13 22:38:06;;;;;;;2.75;1.35;;;18.00;68.70;;;;;;6137258;23;20233;-88
2024/02/13 22:40:41;;;;;;;3.70;1.42;;;18.00;68.10;;;;;;6066560;23;20166;-86
2024/02/13 22:43:07;;;;;;;1.42;1.23;;;17.90;67.80;;;;;;6088374;23;20157;-88
2024/02/13 22:45:41;;;;;;;3.80;1.38;;;18.00;68.00;;;;;;6136841;23;20155;-87
2024/02/13 22:48:15;;;;;;;3.97;1.33;;;17.90;68.50;;;;;;6050683;23;20244;-88
2024/02/13 22:50:44;;;;;;;1.70;1.20;;;17.90;67.90;;;;;;6051837;23;20188;-88
2024/02/13 22:53:18;;;;;;;3.35;1.50;;;17.90;68.40;;;;;;6026312;23;20152;-87
2024/02/13 22:55:51;;;;;;;2.50;1.17;;;17.90;68.70;;;;;;6026828;23;20153;-88
2024/02/13 22:58:28;;;;;;;2.75;1.25;;;17.90;68.90;;;;;;6092632;23;20154;-87
2024/02/13 23:00:58;;;;;;;2.65;1.40;;;17.90;68.80;;;;;;6096221;23;20159;-87
2024/02/13 23:03:28;;;;;;;2.38;1.30;;;17.90;68.70;;;;;;6097693;23;20157;-88
2024/02/13 23:06:00;;;;;;;3.30;1.30;;;17.90;68.70;;;;;;6021310;23;20154;-88
2024/02/13 23:08:28;;;;;;;2.45;1.40;;;17.90;68.60;;;;;;6069113;23;20163;-87
2024/02/13 23:11:12;;;;;;;2.22;1.40;;;17.80;68.80;;;;;;6069367;23;20158;-88